Terminal Aerodrome Forecast
Issued by NWS Twin Cities, MN

Home | Current Version | Previous Version | Graphics & Text | Print | Product List | Glossary On
Versions: 1 2 3 4 5 6 7 8 9 10 11 12 13 14 15 16 17 18 19 20 21
000
FTUS43 KMPX 281700
TAFSTC
TAF
KSTC 281739Z 2818/2918 13008KT P6SM VCSH SCT015 OVC035
      TEMPO 2818/2822 2SM -FZDZSN BKN015
     FM282200 11006KT P6SM SCT020 OVC035
     FM290100 13005KT P6SM OVC020
     FM291500 18008KT P6SM OVC020=

USA.gov is the U.S. government's official web portal to all federal, state and local government web resources and services.